sensor_id;sensor_type;location;lat;lon;timestamp;pressure;altitude;pressure_sealevel;temperature;humidity
36092;BME280;22147;52.388;13.390;2023-04-01T00:01:45;99078.63;;;7.33;100.00
36092;BME280;22147;52.388;13.390;2023-04-01T00:04:13;99076.22;;;7.32;100.00
36092;BME280;22147;52.388;13.390;2023-04-01T00:06:45;99078.97;;;7.32;100.00
36092;BME280;22147;52.388;13.390;2023-04-01T00:09:17;99078.16;;;7.31;100.00
36092;BME280;22147;52.388;13.390;2023-04-01T00:11:47;99084.03;;;7.30;100.00
36092;BME280;22147;52.388;13.390;2023-04-01T00:14:18;99084.03;;;7.30;100.00
36092;BME280;22147;52.388;13.390;2023-04-01T00:16:48;99083.22;;;7.29;100.00
36092;BME280;22147;52.388;13.390;2023-04-01T00:19:18;99084.03;;;7.30;100.00
36092;BME280;22147;52.388;13.390;2023-04-01T00:21:48;99081.28;;;7.30;100.00
36092;BME280;22147;52.388;13.390;2023-04-01T00:24:18;99089.22;;;7.31;100.00
36092;BME280;22147;52.388;13.390;2023-04-01T00:26:48;99084.41;;;7.28;100.00
36092;BME280;22147;52.388;13.390;2023-04-01T00:29:19;99087.50;;;7.27;100.00
36092;BME280;22147;52.388;13.390;2023-04-01T00:31:49;99084.28;;;7.25;100.00
36092;BME280;22147;52.388;13.390;2023-04-01T00:34:19;99087.03;;;7.25;100.00
36092;BME280;22147;52.388;13.390;2023-04-01T00:36:50;99084.28;;;7.25;100.00
36092;BME280;22147;52.388;13.390;2023-04-01T00:39:22;99085.53;;;7.27;100.00
36092;BME280;22147;52.388;13.390;2023-04-01T00:41:52;99084.03;;;7.30;100.00
36092;BME280;22147;52.388;13.390;2023-04-01T00:44:30;99084.41;;;7.28;100.00
36092;BME280;22147;52.388;13.390;2023-04-01T00:47:02;99079.34;;;7.30;100.00
36092;BME280;22147;52.388;13.390;2023-04-01T00:49:42;99084.88;;;7.30;100.00
36092;BME280;22147;52.388;13.390;2023-04-01T00:52:20;99074.94;;;7.29;100.00
36092;BME280;22147;52.388;13.390;2023-04-01T00:55:00;99084.88;;;7.30;100.00
36092;BME280;22147;52.388;13.390;2023-04-01T00:57:37;99077.03;;;7.32;100.00
36092;BME280;22147;52.388;13.390;2023-04-01T01:00:12;99079.09;;;7.36;100.00
36092;BME280;22147;52.388;13.390;2023-04-01T01:02:49;99077.97;;;7.37;100.00
36092;BME280;22147;52.388;13.390;2023-04-01T01:05:43;99075.53;;;7.35;100.00
36092;BME280;22147;52.388;13.390;2023-04-01T01:08:44;99086.91;;;7.33;100.00
36092;BME280;22147;52.388;13.390;2023-04-01T01:12:02;99085.78;;;7.34;100.00
36092;BME280;22147;52.388;13.390;2023-04-01T01:15:14;99083.03;;;7.34;100.00
36092;BME280;22147;52.388;13.390;2023-04-01T01:18:16;99084.75;;;7.39;100.00
36092;BME280;22147;52.388;13.390;2023-04-01T01:27:54;99087.03;;;7.37;100.00
36092;BME280;22147;52.388;13.390;2023-04-01T01:30:59;99083.91;;;7.39;100.00
36092;BME280;22147;52.388;13.390;2023-04-01T01:37:01;99085.19;;;7.41;100.00
36092;BME280;22147;52.388;13.390;2023-04-01T01:39:37;99081.59;;;7.41;100.00
36092;BME280;22147;52.388;13.390;2023-04-01T01:42:18;99083.91;;;7.39;100.00
36092;BME280;22147;52.388;13.390;2023-04-01T01:44:52;99083.91;;;7.39;100.00
36092;BME280;22147;52.388;13.390;2023-04-01T01:47:23;99081.16;;;7.39;100.00
36092;BME280;22147;52.388;13.390;2023-04-01T01:49:56;99087.50;;;7.39;100.00
36092;BME280;22147;52.388;13.390;2023-04-01T01:52:27;99085.53;;;7.40;100.00
36092;BME280;22147;52.388;13.390;2023-04-01T01:54:58;99087.13;;;7.41;100.00
36092;BME280;22147;52.388;13.390;2023-04-01T01:57:38;99090.00;;;7.44;100.00
36092;BME280;22147;52.388;13.390;2023-04-01T02:00:12;99095.19;;;7.46;100.00
36092;BME280;22147;52.388;13.390;2023-04-01T02:02:48;99101.06;;;7.44;100.00
36092;BME280;22147;52.388;13.390;2023-04-01T02:05:24;99093.13;;;7.43;100.00
36092;BME280;22147;52.388;13.390;2023-04-01T02:08:26;99096.25;;;7.41;100.00
36092;BME280;22147;52.388;13.390;2023-04-01T02:11:12;99093.81;;;7.40;100.00
36092;BME280;22147;52.388;13.390;2023-04-01T02:14:01;99090.25;;;7.39;100.00
36092;BME280;22147;52.388;13.390;2023-04-01T02:17:02;99091.75;;;7.37;100.00
36092;BME280;22147;52.388;13.390;2023-04-01T02:19:45;99091.41;;;7.38;100.00
36092;BME280;22147;52.388;13.390;2023-04-01T02:22:27;99090.94;;;7.36;100.00
36092;BME280;22147;52.388;13.390;2023-04-01T02:25:10;99096.47;;;7.36;100.00
36092;BME280;22147;52.388;13.390;2023-04-01T02:27:45;99097.63;;;7.35;100.00
36092;BME280;22147;52.388;13.390;2023-04-01T02:30:15;99091.31;;;7.34;100.00
36092;BME280;22147;52.388;13.390;2023-04-01T02:32:48;99096.81;;;7.34;100.00
36092;BME280;22147;52.388;13.390;2023-04-01T02:35:19;99092.78;;;7.32;100.00
36092;BME280;22147;52.388;13.390;2023-04-01T02:37:53;99102.22;;;7.31;100.00
36092;BME280;22147;52.388;13.390;2023-04-01T02:40:24;99101.06;;;7.32;100.00
36092;BME280;22147;52.388;13.390;2023-04-01T02:42:54;99106.13;;;7.30;100.00
36092;BME280;22147;52.388;13.390;2023-04-01T02:45:24;99103.38;;;7.30;100.00
36092;BME280;22147;52.388;13.390;2023-04-01T02:47:55;99103.81;;;7.32;100.00
36092;BME280;22147;52.388;13.390;2023-04-01T02:50:25;99114.53;;;7.33;100.00
36092;BME280;22147;52.388;13.390;2023-04-01T02:52:55;99116.16;;;7.34;100.00
36092;BME280;22147;52.388;13.390;2023-04-01T02:55:25;99115.78;;;7.36;100.00
36092;BME280;22147;52.388;13.390;2023-04-01T02:57:56;99116.16;;;7.34;100.00
36092;BME280;22147;52.388;13.390;2023-04-01T03:00:26;99120.06;;;7.33;100.00
36092;BME280;22147;52.388;13.390;2023-04-01T03:02:57;99120.84;;;7.34;100.00
36092;BME280;22147;52.388;13.390;2023-04-01T03:05:28;99118.09;;;7.34;100.00
36092;BME280;22147;52.388;13.390;2023-04-01T03:07:58;99120.06;;;7.33;100.00
36092;BME280;22147;52.388;13.390;2023-04-01T03:10:27;99117.28;;;7.33;100.00
36092;BME280;22147;52.388;13.390;2023-04-01T03:12:55;99112.09;;;7.32;100.00
36092;BME280;22147;52.388;13.390;2023-04-01T03:15:24;99121.56;;;7.31;100.00
36092;BME280;22147;52.388;13.390;2023-04-01T03:17:53;99118.47;;;7.32;100.00
36092;BME280;22147;52.388;13.390;2023-04-01T03:20:21;99118.09;;;7.34;100.00
36092;BME280;22147;52.388;13.390;2023-04-01T03:22:49;99123.63;;;7.34;100.00
36092;BME280;22147;52.388;13.390;2023-04-01T03:25:18;99122.81;;;7.33;100.00
36092;BME280;22147;52.388;13.390;2023-04-01T03:27:46;99127.53;;;7.33;100.00
36092;BME280;22147;52.388;13.390;2023-04-01T03:30:15;99129.97;;;7.34;100.00
36092;BME280;22147;52.388;13.390;2023-04-01T03:32:43;99134.66;;;7.34;100.00
36092;BME280;22147;52.388;13.390;2023-04-01T03:35:11;99131.56;;;7.36;100.00
36092;BME280;22147;52.388;13.390;2023-04-01T03:37:40;99133.53;;;7.35;100.00
36092;BME280;22147;52.388;13.390;2023-04-01T03:40:09;99134.31;;;7.36;100.00
36092;BME280;22147;52.388;13.390;2023-04-01T03:42:40;99145.84;;;7.38;100.00
36092;BME280;22147;52.388;13.390;2023-04-01T03:45:10;99141.09;;;7.38;100.00
36092;BME280;22147;52.388;13.390;2023-04-01T03:47:44;99149.06;;;7.40;100.00
36092;BME280;22147;52.388;13.390;2023-04-01T03:50:15;99143.53;;;7.40;100.00
36092;BME280;22147;52.388;13.390;2023-04-01T03:52:45;99147.44;;;7.39;100.00
36092;BME280;22147;52.388;13.390;2023-04-01T03:55:15;99144.66;;;7.39;100.00
36092;BME280;22147;52.388;13.390;2023-04-01T03:57:47;99143.41;;;7.36;100.00
36092;BME280;22147;52.388;13.390;2023-04-01T04:00:18;99148.59;;;7.38;100.00
36092;BME280;22147;52.388;13.390;2023-04-01T04:02:48;99157.34;;;7.40;100.00
36092;BME280;22147;52.388;13.390;2023-04-01T04:05:18;99155.72;;;7.39;100.00
36092;BME280;22147;52.388;13.390;2023-04-01T04:07:49;99157.34;;;7.40;100.00
36092;BME280;22147;52.388;13.390;2023-04-01T04:10:21;99159.31;;;7.39;100.00
36092;BME280;22147;52.388;13.390;2023-04-01T04:12:52;99162.88;;;7.40;100.00
36092;BME280;22147;52.388;13.390;2023-04-01T04:15:23;99160.09;;;7.40;100.00
36092;BME280;22147;52.388;13.390;2023-04-01T04:17:53;99162.53;;;7.41;100.00
36092;BME280;22147;52.388;13.390;2023-04-01T04:20:23;99168.06;;;7.41;100.00
36092;BME280;22147;52.388;13.390;2023-04-01T04:22:54;99163.34;;;7.42;100.00
36092;BME280;22147;52.388;13.390;2023-04-01T04:25:24;99176.34;;;7.41;100.00
36092;BME280;22147;52.388;13.390;2023-04-01T04:27:54;99172.41;;;7.42;100.00
36092;BME280;22147;52.388;13.390;2023-04-01T04:30:24;99177.59;;;7.44;100.00
36092;BME280;22147;52.388;13.390;2023-04-01T04:32:54;99173.69;;;7.45;100.00
36092;BME280;22147;52.388;13.390;2023-04-01T04:35:25;99169.31;;;7.44;100.00
36092;BME280;22147;52.388;13.390;2023-04-01T04:37:55;99176.81;;;7.43;100.00
36092;BME280;22147;52.388;13.390;2023-04-01T04:40:25;99182.78;;;7.45;100.00
36092;BME280;22147;52.388;13.390;2023-04-01T04:42:55;99176.44;;;7.45;100.00
36092;BME280;22147;52.388;13.390;2023-04-01T04:45:25;99176.44;;;7.45;100.00
36092;BME280;22147;52.388;13.390;2023-04-01T04:47:56;99180.03;;;7.45;100.00
36092;BME280;22147;52.388;13.390;2023-04-01T04:50:26;99183.25;;;7.47;100.00
36092;BME280;22147;52.388;13.390;2023-04-01T04:52:56;99186.03;;;7.47;100.00
36092;BME280;22147;52.388;13.390;2023-04-01T04:55:26;99183.25;;;7.47;100.00
36092;BME280;22147;52.388;13.390;2023-04-01T04:57:56;99189.25;;;7.49;100.00
36092;BME280;22147;52.388;13.390;2023-04-01T05:00:27;99197.53;;;7.49;100.00
36092;BME280;22147;52.388;13.390;2023-04-01T05:02:57;99196.38;;;7.50;100.00
36092;BME280;22147;52.388;13.390;2023-04-01T05:05:25;99190.16;;;7.53;100.00
36092;BME280;22147;52.388;13.390;2023-04-01T05:07:54;99191.75;;;7.54;100.00
36092;BME280;22147;52.388;13.390;2023-04-01T05:10:22;99196.59;;;7.58;100.00
36092;BME280;22147;52.388;13.390;2023-04-01T05:12:50;99198.22;;;7.59;100.00
36092;BME280;22147;52.388;13.390;2023-04-01T05:15:19;99198.34;;;7.62;100.00
36092;BME280;22147;52.388;13.390;2023-04-01T05:17:47;99196.03;;;7.64;100.00
36092;BME280;22147;52.388;13.390;2023-04-01T05:20:16;99204.78;;;7.66;100.00
36092;BME280;22147;52.388;13.390;2023-04-01T05:22:44;99202.13;;;7.70;100.00
36092;BME280;22147;52.388;13.390;2023-04-01T05:25:13;99200.63;;;7.72;100.00
36092;BME280;22147;52.388;13.390;2023-04-01T05:27:41;99207.44;;;7.75;100.00
36092;BME280;22147;52.388;13.390;2023-04-01T05:30:10;99208.22;;;7.75;100.00
36092;BME280;22147;52.388;13.390;2023-04-01T05:32:38;99207.91;;;7.77;100.00
36092;BME280;22147;52.388;13.390;2023-04-01T05:35:07;99211.13;;;7.79;100.00
36092;BME280;22147;52.388;13.390;2023-04-01T05:37:35;99208.81;;;7.81;100.00
36092;BME280;22147;52.388;13.390;2023-04-01T05:40:05;99212.50;;;7.85;100.00
36092;BME280;22147;52.388;13.390;2023-04-01T05:42:35;99212.97;;;7.87;100.00
36092;BME280;22147;52.388;13.390;2023-04-01T05:45:07;99211.00;;;7.88;100.00
36092;BME280;22147;52.388;13.390;2023-04-01T05:47:38;99216.53;;;7.88;100.00
36092;BME280;22147;52.388;13.390;2023-04-01T05:50:10;99216.84;;;7.86;100.00
36092;BME280;22147;52.388;13.390;2023-04-01T05:52:40;99213.63;;;7.84;100.00
36092;BME280;22147;52.388;13.390;2023-04-01T05:55:11;99224.09;;;7.91;100.00
36092;BME280;22147;52.388;13.390;2023-04-01T05:57:39;99222.38;;;7.99;100.00
36092;BME280;22147;52.388;13.390;2023-04-01T06:00:08;99226.88;;;8.03;100.00
36092;BME280;22147;52.388;13.390;2023-04-01T06:02:39;99220.53;;;8.03;100.00
36092;BME280;22147;52.388;13.390;2023-04-01T06:05:23;99226.28;;;8.10;100.00
36092;BME280;22147;52.388;13.390;2023-04-01T06:08:09;99234.22;;;8.11;100.00
36092;BME280;22147;52.388;13.390;2023-04-01T06:11:16;99239.06;;;8.14;100.00
36092;BME280;22147;52.388;13.390;2023-04-01T06:18:08;99244.81;;;8.34;100.00
36092;BME280;22147;52.388;13.390;2023-04-01T06:28:22;99256.91;;;8.42;100.00
36092;BME280;22147;52.388;13.390;2023-04-01T06:31:41;99254.25;;;8.45;100.00
36092;BME280;22147;52.388;13.390;2023-04-01T06:38:15;99258.06;;;8.53;100.00
36092;BME280;22147;52.388;13.390;2023-04-01T06:56:29;99265.28;;;8.98;100.00
36092;BME280;22147;52.388;13.390;2023-04-01T06:59:25;99267.47;;;9.21;100.00
36092;BME280;22147;52.388;13.390;2023-04-01T07:04:48;99262.31;;;9.35;100.00
36092;BME280;22147;52.388;13.390;2023-04-01T07:07:46;99272.91;;;9.61;100.00
36092;BME280;22147;52.388;13.390;2023-04-01T07:10:41;99282.19;;;9.85;100.00
36092;BME280;22147;52.388;13.390;2023-04-01T07:13:28;99279.16;;;10.06;100.00
36092;BME280;22147;52.388;13.390;2023-04-01T07:16:21;99285.00;;;10.20;100.00
36092;BME280;22147;52.388;13.390;2023-04-01T07:19:57;99281.06;;;10.37;100.00
36092;BME280;22147;52.388;13.390;2023-04-01T07:22:43;99282.69;;;10.38;100.00
36092;BME280;22147;52.388;13.390;2023-04-01T07:25:46;99292.25;;;10.56;100.00
36092;BME280;22147;52.388;13.390;2023-04-01T07:28:21;99292.16;;;10.53;100.00
36092;BME280;22147;52.388;13.390;2023-04-01T07:31:05;99293.25;;;10.48;100.00
36092;BME280;22147;52.388;13.390;2023-04-01T07:34:08;99295.06;;;10.60;100.00
36092;BME280;22147;52.388;13.390;2023-04-01T07:37:00;99297.59;;;10.65;100.00
36092;BME280;22147;52.388;13.390;2023-04-01T07:43:17;99298.38;;;10.66;100.00
36092;BME280;22147;52.388;13.390;2023-04-01T07:52:24;99306.03;;;10.37;100.00
36092;BME280;22147;52.388;13.390;2023-04-01T07:55:16;99302.56;;;10.40;100.00
36092;BME280;22147;52.388;13.390;2023-04-01T08:05:26;99320.63;;;10.18;100.00
36092;BME280;22147;52.388;13.390;2023-04-01T08:08:32;99312.69;;;10.32;100.00
36092;BME280;22147;52.388;13.390;2023-04-01T08:18:03;99318.84;;;10.77;100.00
36092;BME280;22147;52.388;13.390;2023-04-01T08:21:05;99324.13;;;10.82;100.00
36092;BME280;22147;52.388;13.390;2023-04-01T08:23:56;99324.47;;;10.80;100.00
36092;BME280;22147;52.388;13.390;2023-04-01T08:26:38;99324.78;;;10.75;100.00
36092;BME280;22147;52.388;13.390;2023-04-01T08:29:44;99328.16;;;10.85;100.00
36092;BME280;22147;52.388;13.390;2023-04-01T08:32:36;99329.75;;;10.86;100.00
36092;BME280;22147;52.388;13.390;2023-04-01T08:35:31;99336.19;;;10.90;100.00
36092;BME280;22147;52.388;13.390;2023-04-01T08:38:29;99332.25;;;11.10;100.00
36092;BME280;22147;52.388;13.390;2023-04-01T08:41:41;99329.38;;;11.46;100.00
36092;BME280;22147;52.388;13.390;2023-04-01T08:54:30;99339.41;;;12.16;100.00
36092;BME280;22147;52.388;13.390;2023-04-01T08:57:53;99342.81;;;12.55;100.00
36092;BME280;22147;52.388;13.390;2023-04-01T09:00:43;99349.50;;;12.77;100.00
36092;BME280;22147;52.388;13.390;2023-04-01T09:06:59;99349.44;;;12.74;100.00
36092;BME280;22147;52.388;13.390;2023-04-01T09:17:28;99351.84;;;13.02;100.00
36092;BME280;22147;52.388;13.390;2023-04-01T09:24:30;99354.22;;;13.03;100.00
36092;BME280;22147;52.388;13.390;2023-04-01T09:27:44;99358.50;;;12.97;100.00
36092;BME280;22147;52.388;13.390;2023-04-01T09:36:38;99384.56;;;11.86;100.00
36092;BME280;22147;52.388;13.390;2023-04-01T09:42:45;99380.69;;;10.58;100.00
36092;BME280;22147;52.388;13.390;2023-04-01T09:45:48;99383.94;;;10.12;100.00
36092;BME280;22147;52.388;13.390;2023-04-01T10:28:19;99422.28;;;9.50;100.00
36092;BME280;22147;52.388;13.390;2023-04-01T10:31:47;99417.72;;;9.58;100.00
36092;BME280;22147;52.388;13.390;2023-04-01T10:51:24;99432.81;;;9.45;100.00
36092;BME280;22147;52.388;13.390;2023-04-01T11:16:25;99455.66;;;8.76;100.00
36092;BME280;22147;52.388;13.390;2023-04-01T11:22:57;99471.22;;;8.93;100.00
36092;BME280;22147;52.388;13.390;2023-04-01T11:32:20;99470.66;;;8.63;100.00
36092;BME280;22147;52.388;13.390;2023-04-01T11:35:49;99475.50;;;8.54;100.00
36092;BME280;22147;52.388;13.390;2023-04-01T11:39:22;99484.66;;;8.33;100.00
36092;BME280;22147;52.388;13.390;2023-04-01T11:48:52;99497.09;;;8.40;100.00
36092;BME280;22147;52.388;13.390;2023-04-01T12:20:50;99522.38;;;8.05;100.00
36092;BME280;22147;52.388;13.390;2023-04-01T12:27:43;99538.09;;;8.13;100.00
36092;BME280;22147;52.388;13.390;2023-04-01T12:37:41;99542.22;;;8.07;100.00
36092;BME280;22147;52.388;13.390;2023-04-01T12:44:57;99553.31;;;8.19;100.00
36092;BME280;22147;52.388;13.390;2023-04-01T12:47:55;99561.28;;;8.00;100.00
36092;BME280;22147;52.388;13.390;2023-04-01T13:00:54;99564.75;;;7.97;100.00
36092;BME280;22147;52.388;13.390;2023-04-01T13:07:46;99571.59;;;8.11;100.00
36092;BME280;22147;52.388;13.390;2023-04-01T13:13:58;99586.03;;;8.17;100.00
36092;BME280;22147;52.388;13.390;2023-04-01T13:24:25;99595.69;;;7.90;100.00
36092;BME280;22147;52.388;13.390;2023-04-01T13:27:34;99603.31;;;7.93;100.00
36092;BME280;22147;52.388;13.390;2023-04-01T13:30:36;99612.34;;;8.02;100.00
36092;BME280;22147;52.388;13.390;2023-04-01T13:39:40;99611.53;;;7.81;100.00
36092;BME280;22147;52.388;13.390;2023-04-01T13:42:57;99623.28;;;7.78;100.00
36092;BME280;22147;52.388;13.390;2023-04-01T13:49:13;99626.41;;;7.67;100.00
36092;BME280;22147;52.388;13.390;2023-04-01T13:54:52;99627.41;;;7.42;100.00
36092;BME280;22147;52.388;13.390;2023-04-01T13:58:16;99635.91;;;7.28;100.00
36092;BME280;22147;52.388;13.390;2023-04-01T14:01:15;99639.66;;;7.23;100.00
36092;BME280;22147;52.388;13.390;2023-04-01T14:04:25;99646.03;;;7.15;100.00
36092;BME280;22147;52.388;13.390;2023-04-01T14:29:16;99669.50;;;6.91;100.00
36092;BME280;22147;52.388;13.390;2023-04-01T14:33:26;99685.13;;;6.70;100.00
36092;BME280;22147;52.388;13.390;2023-04-01T14:36:08;99685.41;;;6.95;100.00
36092;BME280;22147;52.388;13.390;2023-04-01T14:45:40;99691.97;;;6.55;100.00
36092;BME280;22147;52.388;13.390;2023-04-01T14:51:33;99695.38;;;6.61;100.00
36092;BME280;22147;52.388;13.390;2023-04-01T14:54:36;99706.44;;;6.52;100.00
36092;BME280;22147;52.388;13.390;2023-04-01T14:57:28;99706.75;;;6.59;100.00
36092;BME280;22147;52.388;13.390;2023-04-01T15:00:18;99717.59;;;6.56;100.00
36092;BME280;22147;52.388;13.390;2023-04-01T15:03:02;99714.56;;;6.31;100.00
36092;BME280;22147;52.388;13.390;2023-04-01T15:10:01;99724.59;;;6.27;100.00
36092;BME280;22147;52.388;13.390;2023-04-01T15:28:52;99752.16;;;6.18;100.00
36092;BME280;22147;52.388;13.390;2023-04-01T15:31:52;99750.53;;;6.08;100.00
36092;BME280;22147;52.388;13.390;2023-04-01T15:37:37;99757.78;;;5.96;100.00
36092;BME280;22147;52.388;13.390;2023-04-01T15:46:41;99772.88;;;5.98;100.00
36092;BME280;22147;52.388;13.390;2023-04-01T15:52:23;99781.09;;;5.89;100.00
36092;BME280;22147;52.388;13.390;2023-04-01T16:02:18;99792.84;;;5.72;100.00
36092;BME280;22147;52.388;13.390;2023-04-01T16:18:56;99823.16;;;5.72;100.00
36092;BME280;22147;52.388;13.390;2023-04-01T16:21:53;99827.91;;;5.81;100.00
36092;BME280;22147;52.388;13.390;2023-04-01T16:24:56;99829.91;;;5.58;100.00
36092;BME280;22147;52.388;13.390;2023-04-01T16:27:54;99833.72;;;5.48;100.00
36092;BME280;22147;52.388;13.390;2023-04-01T16:37:30;99850.13;;;5.53;100.00
36092;BME280;22147;52.388;13.390;2023-04-01T16:43:40;99859.66;;;5.47;100.00
36092;BME280;22147;52.388;13.390;2023-04-01T16:55:17;99874.63;;;5.32;100.00
36092;BME280;22147;52.388;13.390;2023-04-01T16:57:58;99883.69;;;5.10;100.00
36092;BME280;22147;52.388;13.390;2023-04-01T17:00:37;99890.09;;;5.19;100.00
36092;BME280;22147;52.388;13.390;2023-04-01T17:03:32;99889.59;;;5.40;100.00
36092;BME280;22147;52.388;13.390;2023-04-01T17:39:44;99957.59;;;4.66;100.00
36092;BME280;22147;52.388;13.390;2023-04-01T17:42:59;99962.38;;;4.61;100.00
36092;BME280;22147;52.388;13.390;2023-04-01T17:46:10;99972.34;;;4.57;100.00
36092;BME280;22147;52.388;13.390;2023-04-01T17:52:38;99983.66;;;4.41;100.00
36092;BME280;22147;52.388;13.390;2023-04-01T17:55:37;99988.53;;;4.31;100.00
36092;BME280;22147;52.388;13.390;2023-04-01T17:59:16;99993.63;;;4.23;100.00
36092;BME280;22147;52.388;13.390;2023-04-01T18:05:30;100007.25;;;4.15;100.00
36092;BME280;22147;52.388;13.390;2023-04-01T18:09:12;100019.78;;;4.21;100.00
36092;BME280;22147;52.388;13.390;2023-04-01T18:17:48;100030.56;;;4.17;100.00
36092;BME280;22147;52.388;13.390;2023-04-01T18:20:39;100033.41;;;4.12;100.00
36092;BME280;22147;52.388;13.390;2023-04-01T18:23:50;100042.97;;;4.15;100.00
36092;BME280;22147;52.388;13.390;2023-04-01T18:26:35;100045.09;;;4.04;100.00
36092;BME280;22147;52.388;13.390;2023-04-01T18:32:42;100068.06;;;3.94;100.00
36092;BME280;22147;52.388;13.390;2023-04-01T18:38:25;100082.06;;;4.12;100.00
36092;BME280;22147;52.388;13.390;2023-04-01T18:44:44;100090.84;;;3.95;100.00
36092;BME280;22147;52.388;13.390;2023-04-01T18:47:59;100101.31;;;4.12;100.00
36092;BME280;22147;52.388;13.390;2023-04-01T18:50:41;100106.06;;;3.87;100.00
36092;BME280;22147;52.388;13.390;2023-04-01T18:53:38;100107.50;;;3.84;100.00
36092;BME280;22147;52.388;13.390;2023-04-01T18:56:29;100116.72;;;3.75;100.00
36092;BME280;22147;52.388;13.390;2023-04-01T18:59:36;100125.00;;;4.07;100.00
36092;BME280;22147;52.388;13.390;2023-04-01T19:02:43;100121.59;;;3.97;100.00
36092;BME280;22147;52.388;13.390;2023-04-01T19:05:46;100125.41;;;3.82;100.00
36092;BME280;22147;52.388;13.390;2023-04-01T19:08:40;100135.56;;;3.81;100.00
36092;BME280;22147;52.388;13.390;2023-04-01T19:11:33;100134.66;;;3.86;100.00
36092;BME280;22147;52.388;13.390;2023-04-01T19:21:10;100152.41;;;3.56;100.00
36092;BME280;22147;52.388;13.390;2023-04-01T19:27:01;100146.31;;;3.59;100.00
36092;BME280;22147;52.388;13.390;2023-04-01T19:39:14;100172.28;;;3.47;100.00
36092;BME280;22147;52.388;13.390;2023-04-01T19:45:26;100182.25;;;3.38;100.00
36092;BME280;22147;52.388;13.390;2023-04-01T19:51:21;100195.69;;;3.40;100.00
36092;BME280;22147;52.388;13.390;2023-04-01T19:58:11;100215.19;;;3.38;100.00
36092;BME280;22147;52.388;13.390;2023-04-01T20:00:54;100218.47;;;3.40;100.00
36092;BME280;22147;52.388;13.390;2023-04-01T20:03:58;100220.34;;;3.45;100.00
36092;BME280;22147;52.388;13.390;2023-04-01T20:13:46;100242.78;;;3.28;100.00
36092;BME280;22147;52.388;13.390;2023-04-01T20:17:01;100246.69;;;3.22;100.00
36092;BME280;22147;52.388;13.390;2023-04-01T20:25:57;100265.66;;;3.18;100.00
36092;BME280;22147;52.388;13.390;2023-04-01T20:28:43;100268.41;;;3.18;100.00
36092;BME280;22147;52.388;13.390;2023-04-01T20:31:34;100273.78;;;2.99;100.00
36092;BME280;22147;52.388;13.390;2023-04-01T20:37:21;100277.88;;;3.02;100.00
36092;BME280;22147;52.388;13.390;2023-04-01T20:43:33;100293.78;;;3.05;100.00
36092;BME280;22147;52.388;13.390;2023-04-01T20:52:17;100295.88;;;2.84;100.00
36092;BME280;22147;52.388;13.390;2023-04-01T21:00:37;100322.19;;;2.85;100.00
36092;BME280;22147;52.388;13.390;2023-04-01T21:03:49;100318.75;;;2.69;100.00
36092;BME280;22147;52.388;13.390;2023-04-01T21:09:53;100321.63;;;2.88;100.00
36092;BME280;22147;52.388;13.390;2023-04-01T21:12:56;100331.63;;;2.69;100.00
36092;BME280;22147;52.388;13.390;2023-04-01T21:26:16;100358.91;;;2.50;100.00
36092;BME280;22147;52.388;13.390;2023-04-01T21:29:33;100369.00;;;2.59;100.00
36092;BME280;22147;52.388;13.390;2023-04-01T21:35:14;100373.44;;;2.50;100.00
36092;BME280;22147;52.388;13.390;2023-04-01T21:44:45;100392.78;;;2.14;100.00
36092;BME280;22147;52.388;13.390;2023-04-01T22:01:40;100421.28;;;2.13;100.00
36092;BME280;22147;52.388;13.390;2023-04-01T22:05:24;100420.72;;;2.16;100.00
36092;BME280;22147;52.388;13.390;2023-04-01T22:11:49;100428.72;;;2.02;100.00
36092;BME280;22147;52.388;13.390;2023-04-01T22:14:47;100434.72;;;2.10;100.00
36092;BME280;22147;52.388;13.390;2023-04-01T22:17:51;100433.63;;;2.11;100.00
36092;BME280;22147;52.388;13.390;2023-04-01T22:20:39;100442.09;;;2.09;100.00
36092;BME280;22147;52.388;13.390;2023-04-01T22:26:45;100440.47;;;2.08;100.00
36092;BME280;22147;52.388;13.390;2023-04-01T22:36:13;100463.25;;;2.03;100.00
36092;BME280;22147;52.388;13.390;2023-04-01T22:39:45;100458.00;;;2.07;100.00
36092;BME280;22147;52.388;13.390;2023-04-01T22:43:04;100461.59;;;2.02;100.00
36092;BME280;22147;52.388;13.390;2023-04-01T22:51:23;100482.66;;;2.07;100.00
36092;BME280;22147;52.388;13.390;2023-04-01T22:57:04;100483.22;;;2.04;100.00
36092;BME280;22147;52.388;13.390;2023-04-01T22:59:58;100493.91;;;1.90;100.00
36092;BME280;22147;52.388;13.390;2023-04-01T23:03:14;100494.19;;;1.99;100.00
36092;BME280;22147;52.388;13.390;2023-04-01T23:05:55;100500.78;;;1.98;100.00
36092;BME280;22147;52.388;13.390;2023-04-01T23:12:19;100511.44;;;1.94;100.00
36092;BME280;22147;52.388;13.390;2023-04-01T23:14:57;100520.75;;;2.09;100.00
36092;BME280;22147;52.388;13.390;2023-04-01T23:18:24;100507.59;;;2.00;100.00
36092;BME280;22147;52.388;13.390;2023-04-01T23:27:30;100533.34;;;1.84;100.00
36092;BME280;22147;52.388;13.390;2023-04-01T23:30:47;100531.47;;;1.85;100.00
36092;BME280;22147;52.388;13.390;2023-04-01T23:33:20;100537.22;;;1.83;100.00
36092;BME280;22147;52.388;13.390;2023-04-01T23:36:22;100540.22;;;1.87;100.00
36092;BME280;22147;52.388;13.390;2023-04-01T23:38:52;100544.88;;;1.91;100.00
36092;BME280;22147;52.388;13.390;2023-04-01T23:41:31;100547.06;;;1.89;100.00
36092;BME280;22147;52.388;13.390;2023-04-01T23:44:11;100551.19;;;1.97;100.00
36092;BME280;22147;52.388;13.390;2023-04-01T23:46:47;100555.81;;;1.96;100.00
36092;BME280;22147;52.388;13.390;2023-04-01T23:49:42;100562.41;;;1.95;100.00
36092;BME280;22147;52.388;13.390;2023-04-01T23:52:26;100562.94;;;1.82;100.00
36092;BME280;22147;52.388;13.390;2023-04-01T23:55:19;100576.09;;;1.85;100.00
